Belize, Belize

4:05 PM CST on March 31, 2015 (GMT -0600)
Astrum Helicopters - Cisco Base | | Change Station
CLOSE
Current Station
Personal Weather Station
Location: Belize City, BZ
Elevation: 3 ft
Nearby Weather Stations

Elev 3 ft 17.50 °N, 88.23 °W | Updated 16 seconds ago

Scattered Clouds
Scattered Clouds
81.7 °F
Feels Like 86 °F
N
8.9
Wind Variable Wind from ENE
Gusts 16.0 mph

Today
High -- | Low -- °F
--% Chance of Precip.
Yesterday
High -- | Low -- °F
Precip. -- in
5:48 AM 6:06 PM
Waxing Gibbous, 89% visible
Pressure 29.98 in
Visibility 6.2 miles
Clouds Few 2000 ft
Scattered Clouds 4500 ft
Heat Index 86 °F
Dew Point 71 °F
Humidity 70%
Rainfall 0.07 in
Snow Depth Not available.
UV 3 out of 12
Pollen Not available.
Air Quality Not available.
Flu Activity Not available.
METAR MZBZ 312200Z 07011KT 9999 FEW020 SCT045 28/22 A2998 Q1015 NOSIG

More Conditions Fewer Conditions

Pressure 29.98 in
Visibility 6.2 miles
Clouds Few 2000 ft
Scattered Clouds 4500 ft
Heat Index 86 °F
Dew Point 71 °F
Humidity 70%
Rainfall 0.07 in
Snow Depth Not available.
UV 3 out of 12
Pollen Not available.
Air Quality Not available.
Flu Activity Not available.
METAR MZBZ 312200Z 07011KT 9999 FEW020 SCT045 28/22 A2998 Q1015 NOSIG

More Conditions Fewer Conditions

10-Day Weather Forecast

Almanac

Astronomy

Mar. 31, 2015 Rise Set
Actual Time
Civil Twilight
Nautical Twilight
Astronomical Twilight
Moon
Length of Visible Light
Length of Day
Tomorrow will be .
, % of the Moon is Illuminated

Today's Extremes

Country Highs Country Lows

Community

WunderPhotos

Upload Photos

1,809,849 photos uploaded!

WunderBlogs® & News

Nearby

Air Quality

  Air Quality AQ Index Pollutant
Not available.

Snow Depth

Station Depth Elevation

Earthquake Activity

City Distance Mag. Time & Date
Minimum magnitude displayed is 2.5.

Coastal Water Temperatures

Place Temperature

Stations

Nearby Weather Stations

Station Location Temp. Windchill Dew Point Humidity Wind Precip. Elev Updated Type